Time;durP1;ratioP1;P1;durP2;ratioP2;P2;SDS_P1;SDS_P2;PMS_P1;PMS_P2;Temp;Humidity;BMP_temperature;BMP_pressure;BME280_temperature;BME280_humidity;BME280_pressure;Samples;Min_cycle;Max_cycle;Signal;HPM_P1;HPM_P2
2021/01/24 00:02:18;;;;;;;11.23;4.75;;;2.00;99.90;;;;;;4937185;29;20399;-94
2021/01/24 00:04:44;;;;;;;9.93;5.28;;;2.00;99.90;;;;;;4936956;29;20058;-92
2021/01/24 00:07:10;;;;;;;11.35;5.18;;;1.90;99.90;;;;;;4953091;29;20070;-94
2021/01/24 00:09:36;;;;;;;12.38;7.32;;;1.90;99.90;;;;;;4969086;29;20041;-93
2021/01/24 00:12:02;;;;;;;10.52;5.65;;;1.90;99.90;;;;;;4952972;29;20035;-94
2021/01/24 00:14:28;;;;;;;7.80;3.92;;;1.80;99.90;;;;;;4936225;29;20031;-94
2021/01/24 00:16:54;;;;;;;13.73;4.72;;;1.90;99.90;;;;;;4937130;29;20035;-93
2021/01/24 00:19:20;;;;;;;13.27;5.50;;;1.80;99.90;;;;;;4952859;29;20047;-93
2021/01/24 00:21:46;;;;;;;12.38;6.70;;;1.80;99.90;;;;;;4953007;29;20023;-93
2021/01/24 00:24:11;;;;;;;15.70;5.95;;;1.80;99.90;;;;;;4968870;28;20484;-93
2021/01/24 00:26:37;;;;;;;11.57;5.07;;;1.80;99.90;;;;;;4936811;29;20047;-94
2021/01/24 00:29:03;;;;;;;12.75;6.68;;;1.80;99.90;;;;;;4952465;29;20035;-94
2021/01/24 00:31:29;;;;;;;15.85;8.48;;;1.90;99.90;;;;;;4952603;29;20103;-94
2021/01/24 00:33:55;;;;;;;16.92;8.48;;;1.90;99.90;;;;;;4952393;29;20031;-93
2021/01/24 00:36:20;;;;;;;22.08;11.00;;;1.90;99.90;;;;;;4936774;29;20069;-93
2021/01/24 00:38:47;;;;;;;14.98;8.40;;;1.90;99.90;;;;;;4968585;29;20038;-94
2021/01/24 00:41:13;;;;;;;16.73;7.90;;;1.90;99.90;;;;;;4952370;29;20031;-93
2021/01/24 00:43:40;;;;;;;8.48;4.25;;;1.90;99.90;;;;;;4933050;29;20055;-94
2021/01/24 00:46:05;;;;;;;11.23;4.80;;;1.90;99.90;;;;;;4934888;29;20075;-93
2021/01/24 00:48:35;;;;;;;9.95;4.72;;;2.00;99.90;;;;;;4935344;29;20040;-94
2021/01/24 00:51:02;;;;;;;8.77;4.18;;;1.90;99.90;;;;;;4934319;29;20036;-94
2021/01/24 00:53:29;;;;;;;16.60;7.65;;;2.00;99.90;;;;;;4933165;29;20127;-93
2021/01/24 00:55:55;;;;;;;17.60;8.80;;;1.90;99.90;;;;;;4932964;29;20024;-94
2021/01/24 00:58:20;;;;;;;18.38;9.25;;;2.00;99.90;;;;;;4933367;29;20163;-94
2021/01/24 01:00:46;;;;;;;23.20;11.50;;;2.00;99.90;;;;;;4932949;29;20075;-94
2021/01/24 01:03:12;;;;;;;25.40;12.95;;;2.00;99.90;;;;;;4932740;29;20107;-94
2021/01/24 01:05:39;;;;;;;19.13;9.15;;;2.00;99.90;;;;;;4917344;29;20032;-95
2021/01/24 01:08:05;;;;;;;27.98;14.93;;;2.00;99.90;;;;;;4933221;29;20036;-94
2021/01/24 01:10:31;;;;;;;26.55;14.65;;;2.00;99.90;;;;;;4948751;29;20032;-94
2021/01/24 01:12:57;;;;;;;33.95;18.58;;;2.00;99.90;;;;;;4932451;29;20086;-94
2021/01/24 01:15:23;;;;;;;30.88;17.65;;;2.00;99.90;;;;;;4932241;29;20039;-94
2021/01/24 01:17:50;;;;;;;32.10;18.80;;;2.00;99.90;;;;;;4916979;29;20099;-94
2021/01/24 01:20:16;;;;;;;30.42;17.50;;;2.10;99.90;;;;;;4932749;29;20322;-91
2021/01/24 01:22:42;;;;;;;40.35;21.50;;;2.10;99.90;;;;;;4932546;29;20395;-93
2021/01/24 01:25:08;;;;;;;40.60;21.25;;;2.10;99.90;;;;;;4931865;29;20046;-90
2021/01/24 01:27:34;;;;;;;35.88;18.83;;;2.10;99.90;;;;;;4916833;29;20043;-94
2021/01/24 01:30:00;;;;;;;29.75;16.20;;;2.10;99.90;;;;;;4932484;29;20095;-92
2021/01/24 01:32:25;;;;;;;31.55;16.27;;;2.10;99.90;;;;;;4948541;29;20050;-93
2021/01/24 01:34:51;;;;;;;27.75;13.35;;;2.10;99.90;;;;;;4932360;29;20039;-94
2021/01/24 01:37:17;;;;;;;23.52;13.35;;;2.00;99.90;;;;;;4932317;29;20035;-93
2021/01/24 01:39:46;;;;;;;20.67;10.40;;;2.00;99.90;;;;;;4948198;29;20480;-94
2021/01/24 01:42:14;;;;;;;23.48;9.85;;;2.00;99.90;;;;;;4916559;29;20036;-93
2021/01/24 01:44:47;;;;;;;14.05;7.78;;;2.00;99.90;;;;;;4918655;29;20051;-94
2021/01/24 01:47:22;;;;;;;17.05;8.00;;;2.00;99.90;;;;;;4916548;29;20043;-94
2021/01/24 01:49:55;;;;;;;17.02;7.18;;;2.00;99.90;;;;;;4916656;29;20036;-94
2021/01/24 01:52:27;;;;;;;16.85;8.85;;;2.00;99.90;;;;;;4916565;29;20047;-93
2021/01/24 01:54:53;;;;;;;23.65;11.48;;;2.00;99.90;;;;;;4932085;29;20047;-94
2021/01/24 01:57:20;;;;;;;24.85;11.82;;;2.00;99.90;;;;;;4932064;29;20095;-93
2021/01/24 01:59:46;;;;;;;26.48;13.20;;;2.00;99.90;;;;;;4931896;29;20040;-94
2021/01/24 02:02:20;;;;;;;24.10;11.65;;;2.00;99.90;;;;;;4916052;29;20055;-94
2021/01/24 02:04:46;;;;;;;22.98;10.98;;;1.90;99.90;;;;;;4916136;29;20043;-93
2021/01/24 02:07:20;;;;;;;18.95;9.98;;;2.00;99.90;;;;;;4932008;29;20094;-94
2021/01/24 02:09:53;;;;;;;21.13;10.05;;;2.00;99.90;;;;;;4932034;29;20044;-93
2021/01/24 02:12:31;;;;;;;16.50;9.05;;;1.90;99.90;;;;;;4916433;29;20032;-93
2021/01/24 02:15:03;;;;;;;17.50;8.15;;;1.90;99.90;;;;;;4932273;29;20042;-93
2021/01/24 02:17:32;;;;;;;16.17;8.10;;;1.90;99.90;;;;;;4932350;29;20028;-93
2021/01/24 02:19:58;;;;;;;26.13;10.73;;;1.90;99.90;;;;;;4931999;29;20031;-94
2021/01/24 02:22:28;;;;;;;20.80;10.43;;;1.80;99.90;;;;;;4931879;29;20035;-92
2021/01/24 02:25:09;;;;;;;18.27;8.50;;;1.90;99.90;;;;;;4915983;29;20032;-93
2021/01/24 02:27:48;;;;;;;18.17;8.50;;;1.90;99.90;;;;;;4916094;29;20069;-93
2021/01/24 02:30:30;;;;;;;14.73;7.83;;;1.90;99.90;;;;;;4932185;29;20103;-93
2021/01/24 02:33:04;;;;;;;19.55;8.55;;;1.80;99.90;;;;;;4931590;29;20032;-94
2021/01/24 02:35:34;;;;;;;18.80;9.48;;;1.80;99.90;;;;;;4931837;29;20032;-94
2021/01/24 02:38:03;;;;;;;14.90;7.70;;;1.80;99.90;;;;;;4935585;29;20062;-93
2021/01/24 02:40:35;;;;;;;15.20;6.78;;;1.80;99.90;;;;;;4919941;29;20107;-93
2021/01/24 02:43:05;;;;;;;12.73;6.35;;;1.80;99.90;;;;;;4935772;29;20103;-94
2021/01/24 02:45:39;;;;;;;16.45;7.03;;;1.80;99.90;;;;;;4936038;29;20032;-94
2021/01/24 02:48:05;;;;;;;10.77;5.10;;;1.80;99.90;;;;;;4935745;29;20035;-90
2021/01/24 02:50:32;;;;;;;17.13;6.80;;;1.80;99.90;;;;;;4919676;29;20103;-92
2021/01/24 02:53:02;;;;;;;15.27;4.72;;;1.70;99.90;;;;;;4936035;29;20042;-92
2021/01/24 02:55:32;;;;;;;13.50;6.22;;;1.70;99.90;;;;;;4935536;29;20217;-94
2021/01/24 02:57:59;;;;;;;16.00;6.72;;;1.80;99.90;;;;;;4951521;29;20054;-92
2021/01/24 03:00:26;;;;;;;19.23;7.57;;;1.80;99.90;;;;;;4951375;29;20223;-92
2021/01/24 03:02:55;;;;;;;18.63;8.80;;;1.80;99.90;;;;;;4934959;29;20499;-95
2021/01/24 03:05:21;;;;;;;15.07;6.97;;;1.80;99.90;;;;;;4919421;29;20044;-92
2021/01/24 03:07:48;;;;;;;19.92;8.82;;;1.80;99.90;;;;;;4951193;29;20452;-93
2021/01/24 03:10:14;;;;;;;22.25;9.32;;;1.80;99.90;;;;;;4919499;29;20023;-91
2021/01/24 03:12:49;;;;;;;17.42;7.60;;;1.80;99.90;;;;;;4950576;29;20122;-92
2021/01/24 03:15:17;;;;;;;14.32;7.63;;;1.80;99.90;;;;;;4919508;29;20027;-92
2021/01/24 03:17:45;;;;;;;17.83;7.35;;;1.80;99.90;;;;;;4950651;29;20028;-91
2021/01/24 03:20:14;;;;;;;12.75;6.18;;;1.70;99.90;;;;;;4919219;29;20385;-92
2021/01/24 03:22:40;;;;;;;10.60;5.47;;;1.80;99.90;;;;;;4950568;29;20404;-94
2021/01/24 03:25:10;;;;;;;12.32;5.97;;;1.80;99.90;;;;;;4951122;29;20031;-94
2021/01/24 03:27:36;;;;;;;13.52;6.43;;;1.80;99.90;;;;;;4950691;29;20091;-93
2021/01/24 03:30:13;;;;;;;12.18;4.55;;;1.80;99.90;;;;;;4951059;29;20040;-95
2021/01/24 03:32:44;;;;;;;11.95;5.05;;;1.90;99.90;;;;;;4950777;29;20035;-93
2021/01/24 03:35:10;;;;;;;11.18;4.88;;;1.90;99.90;;;;;;4918969;29;20031;-92
2021/01/24 03:37:45;;;;;;;11.38;4.78;;;1.90;99.90;;;;;;4950250;29;20066;-94
2021/01/24 03:40:16;;;;;;;10.07;4.20;;;1.90;99.90;;;;;;4919136;29;20031;-95
2021/01/24 03:42:44;;;;;;;9.50;3.83;;;2.00;99.90;;;;;;4935258;29;20103;-92
2021/01/24 03:45:11;;;;;;;7.75;3.70;;;2.00;99.90;;;;;;4953218;29;20031;-94
2021/01/24 03:47:37;;;;;;;10.32;4.38;;;2.00;99.90;;;;;;4940926;29;20044;-94
2021/01/24 03:50:04;;;;;;;11.55;4.28;;;2.10;99.90;;;;;;4932459;29;20035;-93
2021/01/24 03:52:38;;;;;;;8.95;3.45;;;2.10;99.90;;;;;;4943031;29;20035;-94
2021/01/24 03:55:04;;;;;;;10.15;4.38;;;2.00;99.90;;;;;;4945066;29;20041;-93
2021/01/24 03:57:32;;;;;;;8.57;3.88;;;2.00;99.90;;;;;;4917869;29;20033;-93
2021/01/24 03:59:58;;;;;;;9.93;4.53;;;2.00;99.90;;;;;;4949876;29;20035;-92
2021/01/24 04:02:24;;;;;;;8.70;2.17;;;2.10;99.90;;;;;;4949694;29;20024;-92
2021/01/24 04:04:50;;;;;;;8.90;3.22;;;2.10;99.90;;;;;;4918019;29;20039;-93
2021/01/24 04:07:16;;;;;;;15.02;5.47;;;2.10;99.90;;;;;;4918040;29;20046;-92
2021/01/24 04:09:42;;;;;;;13.90;5.60;;;2.10;99.90;;;;;;4933970;29;20036;-93
2021/01/24 04:12:10;;;;;;;14.77;5.53;;;2.00;99.90;;;;;;4917889;29;20059;-93
2021/01/24 04:14:36;;;;;;;18.42;7.65;;;2.00;99.90;;;;;;4933812;29;20031;-93
2021/01/24 04:17:03;;;;;;;14.80;6.45;;;1.90;99.90;;;;;;4918107;29;20047;-94
2021/01/24 04:19:29;;;;;;;13.10;5.88;;;1.90;99.90;;;;;;4933536;29;20035;-94
2021/01/24 04:21:55;;;;;;;18.73;6.72;;;1.90;99.90;;;;;;4965541;29;20046;-95
2021/01/24 04:24:23;;;;;;;15.52;5.40;;;1.90;99.90;;;;;;4965444;29;20117;-94
2021/01/24 04:26:52;;;;;;;12.10;5.40;;;2.00;99.90;;;;;;4949149;29;20079;-94
2021/01/24 04:29:18;;;;;;;10.70;4.35;;;1.90;99.90;;;;;;4917986;29;20035;-94
2021/01/24 04:31:54;;;;;;;11.35;4.60;;;1.90;99.90;;;;;;4949303;29;20059;-95
2021/01/24 04:34:36;;;;;;;12.70;4.40;;;1.90;99.90;;;;;;4933263;29;20027;-95
2021/01/24 04:37:14;;;;;;;8.23;3.88;;;1.90;99.90;;;;;;4949231;29;20170;-95
2021/01/24 04:40:06;;;;;;;9.65;3.72;;;1.90;99.90;;;;;;4947077;29;20047;-95
2021/01/24 04:42:45;;;;;;;11.85;4.88;;;1.90;99.90;;;;;;4965012;29;20032;-95
2021/01/24 04:45:18;;;;;;;10.85;4.28;;;1.90;99.90;;;;;;4939755;29;20035;-95
2021/01/24 04:47:47;;;;;;;12.15;5.40;;;1.90;99.90;;;;;;4952512;29;20043;-94
2021/01/24 04:50:18;;;;;;;14.32;5.93;;;1.90;99.90;;;;;;4937148;29;20046;-94
2021/01/24 04:52:57;;;;;;;16.58;6.50;;;1.90;99.90;;;;;;4936331;29;20039;-93
2021/01/24 04:55:29;;;;;;;16.20;7.05;;;1.90;99.90;;;;;;4952166;29;20055;-94
2021/01/24 04:58:01;;;;;;;19.08;8.20;;;1.90;99.90;;;;;;4952277;29;20051;-95
2021/01/24 05:00:34;;;;;;;18.15;7.45;;;1.90;99.90;;;;;;4935643;29;20035;-94
2021/01/24 05:03:08;;;;;;;16.65;6.78;;;1.90;99.90;;;;;;4951943;29;20027;-94
2021/01/24 05:05:34;;;;;;;17.33;7.95;;;1.90;99.90;;;;;;4951844;29;20334;-94
2021/01/24 05:08:07;;;;;;;17.55;8.02;;;1.90;99.90;;;;;;4936188;29;20034;-94
2021/01/24 05:10:33;;;;;;;20.27;7.45;;;2.00;99.90;;;;;;4936212;29;20039;-93
2021/01/24 05:12:59;;;;;;;24.42;9.52;;;1.90;99.90;;;;;;4967670;29;20035;-94
2021/01/24 05:15:28;;;;;;;21.58;8.00;;;2.00;99.90;;;;;;4951963;29;20039;-93
2021/01/24 05:18:14;;;;;;;22.08;8.20;;;1.90;99.90;;;;;;4952073;29;20039;-93
2021/01/24 05:20:46;;;;;;;22.75;9.27;;;2.00;99.90;;;;;;4951723;29;20032;-94
2021/01/24 05:23:21;;;;;;;19.15;7.57;;;1.90;99.90;;;;;;4951706;29;20031;-94
2021/01/24 05:25:57;;;;;;;24.98;8.70;;;1.90;99.90;;;;;;4951613;29;20035;-94
2021/01/24 05:28:30;;;;;;;24.55;9.95;;;1.90;99.90;;;;;;4953081;29;20038;-94
2021/01/24 05:31:03;;;;;;;22.05;9.75;;;2.00;99.90;;;;;;4937780;29;20085;-93
2021/01/24 05:33:34;;;;;;;22.80;9.45;;;2.00;99.90;;;;;;4969082;29;20050;-94
2021/01/24 05:36:21;;;;;;;17.90;8.27;;;2.00;99.90;;;;;;4951578;29;20035;-94
2021/01/24 05:39:05;;;;;;;19.55;7.72;;;2.00;99.90;;;;;;4951612;29;20058;-93
2021/01/24 05:41:31;;;;;;;22.80;9.55;;;1.90;99.90;;;;;;4935641;29;20086;-93
2021/01/24 05:43:57;;;;;;;19.80;8.18;;;2.00;99.90;;;;;;4935474;29;20047;-92
2021/01/24 05:46:32;;;;;;;23.50;9.60;;;2.00;99.90;;;;;;4951242;29;20113;-93
2021/01/24 05:49:02;;;;;;;22.08;8.82;;;2.00;99.90;;;;;;4951580;29;20462;-95
2021/01/24 05:51:29;;;;;;;22.37;9.50;;;2.00;99.90;;;;;;4951156;29;20118;-93
2021/01/24 05:53:57;;;;;;;19.25;7.63;;;2.00;99.90;;;;;;4951160;29;20036;-93
2021/01/24 05:56:23;;;;;;;18.88;8.32;;;2.00;99.90;;;;;;4935159;29;20037;-93
2021/01/24 05:58:59;;;;;;;24.30;8.93;;;2.00;99.90;;;;;;4935434;29;20035;-94
2021/01/24 06:01:29;;;;;;;21.70;9.55;;;2.00;99.90;;;;;;4935571;29;20047;-94
2021/01/24 06:04:02;;;;;;;22.33;8.98;;;2.00;99.90;;;;;;4951106;29;20027;-93
2021/01/24 06:06:28;;;;;;;19.25;7.97;;;2.00;99.90;;;;;;4967108;28;20042;-93
2021/01/24 06:08:54;;;;;;;17.63;8.48;;;2.00;99.90;;;;;;4935591;29;20039;-92
2021/01/24 06:11:23;;;;;;;18.40;8.45;;;2.00;99.90;;;;;;4934590;29;20031;-94
2021/01/24 06:13:55;;;;;;;23.65;9.43;;;2.00;99.90;;;;;;4935134;29;20027;-93
2021/01/24 06:16:29;;;;;;;16.90;8.05;;;1.90;99.90;;;;;;4967013;29;20035;-93
2021/01/24 06:19:07;;;;;;;21.55;8.57;;;1.90;99.90;;;;;;4935323;29;20031;-92
2021/01/24 06:21:40;;;;;;;20.73;7.97;;;1.90;99.90;;;;;;4934830;29;20142;-92
2021/01/24 06:24:35;;;;;;;15.10;6.43;;;1.80;99.90;;;;;;4935177;29;20031;-92
2021/01/24 06:27:03;;;;;;;18.17;8.32;;;1.80;99.90;;;;;;4950933;29;20043;-94
2021/01/24 06:29:32;;;;;;;16.35;7.13;;;1.80;99.90;;;;;;4951125;29;20028;-93
2021/01/24 06:32:04;;;;;;;19.38;6.82;;;1.70;99.90;;;;;;4951129;29;20586;-93
2021/01/24 06:34:40;;;;;;;16.75;7.43;;;1.70;99.90;;;;;;4934885;29;20035;-94
2021/01/24 06:37:11;;;;;;;15.20;5.40;;;1.70;99.90;;;;;;4934729;29;20071;-94
2021/01/24 06:39:48;;;;;;;13.32;6.13;;;1.70;99.90;;;;;;4935280;29;20020;-94
2021/01/24 06:42:36;;;;;;;17.13;6.38;;;1.70;99.90;;;;;;4934868;29;20039;-93
2021/01/24 06:45:24;;;;;;;15.88;6.20;;;1.70;99.90;;;;;;4949905;29;20103;-94
2021/01/24 06:47:50;;;;;;;12.13;6.30;;;1.70;99.90;;;;;;4930792;29;20052;-94
2021/01/24 06:50:39;;;;;;;11.93;5.28;;;1.70;99.90;;;;;;4947451;29;20028;-93
2021/01/24 06:53:21;;;;;;;15.57;7.55;;;1.70;99.90;;;;;;4946973;29;20031;-93
2021/01/24 06:55:55;;;;;;;13.48;5.20;;;1.70;99.90;;;;;;4963440;29;20071;-93
2021/01/24 06:58:22;;;;;;;11.90;4.97;;;1.70;99.90;;;;;;4964371;29;20032;-93
2021/01/24 07:00:54;;;;;;;9.85;5.18;;;1.70;99.90;;;;;;4964043;29;20063;-93
2021/01/24 07:03:20;;;;;;;12.18;5.32;;;1.60;99.90;;;;;;4949010;29;20115;-94
2021/01/24 07:06:13;;;;;;;13.15;5.20;;;1.60;99.90;;;;;;4963005;29;20036;-94
2021/01/24 07:08:39;;;;;;;9.48;4.55;;;1.50;99.90;;;;;;4931091;29;20048;-94
2021/01/24 07:11:07;;;;;;;8.77;4.07;;;1.50;99.90;;;;;;4931478;29;20127;-94
2021/01/24 07:13:35;;;;;;;9.60;4.28;;;1.50;99.90;;;;;;4946662;29;20039;-94
2021/01/24 07:16:06;;;;;;;7.70;2.92;;;1.50;99.90;;;;;;4963414;29;20122;-94
2021/01/24 07:18:43;;;;;;;11.88;4.05;;;1.50;99.90;;;;;;4946868;29;20048;-93
2021/01/24 07:21:31;;;;;;;13.77;4.95;;;1.60;99.90;;;;;;4947011;29;20035;-94
2021/01/24 07:24:03;;;;;;;13.70;4.32;;;1.70;99.90;;;;;;4945222;29;20103;-94
2021/01/24 07:26:41;;;;;;;9.15;3.97;;;1.70;99.90;;;;;;4967003;29;20054;-93
2021/01/24 07:29:33;;;;;;;11.25;4.82;;;1.70;99.90;;;;;;4950638;29;20389;-93
2021/01/24 07:32:23;;;;;;;6.65;2.72;;;1.70;99.90;;;;;;4950196;29;20126;-94
2021/01/24 07:35:11;;;;;;;12.18;3.70;;;1.60;99.90;;;;;;4950433;29;20480;-93
2021/01/24 07:37:40;;;;;;;9.88;3.03;;;1.70;99.90;;;;;;4967392;29;20032;-95
2021/01/24 07:40:13;;;;;;;9.38;3.90;;;1.60;99.90;;;;;;4967663;29;20366;-94
2021/01/24 07:42:51;;;;;;;7.70;2.85;;;1.60;99.90;;;;;;4965802;29;20043;-93
2021/01/24 07:45:28;;;;;;;7.72;3.13;;;1.70;99.90;;;;;;4950561;29;20059;-93
2021/01/24 07:47:56;;;;;;;10.70;3.42;;;1.70;99.90;;;;;;4949380;29;20047;-92
2021/01/24 07:50:28;;;;;;;6.45;2.50;;;1.70;99.90;;;;;;4964221;29;20032;-93
2021/01/24 07:53:06;;;;;;;7.50;2.63;;;1.60;99.90;;;;;;4933490;29;20067;-94
2021/01/24 07:55:32;;;;;;;5.43;2.00;;;1.60;99.90;;;;;;4949969;29;20040;-91
2021/01/24 07:58:04;;;;;;;6.90;2.25;;;1.70;99.90;;;;;;4965637;29;20042;-93
2021/01/24 08:00:33;;;;;;;8.05;2.10;;;1.70;99.90;;;;;;4964632;29;20058;-92
2021/01/24 08:03:03;;;;;;;5.13;1.87;;;1.70;99.90;;;;;;4948773;29;20038;-92
2021/01/24 08:05:35;;;;;;;6.30;2.53;;;1.70;99.90;;;;;;4949210;29;20051;-92
2021/01/24 08:08:00;;;;;;;7.55;2.33;;;1.80;99.90;;;;;;4964960;29;20044;-92
2021/01/24 08:10:33;;;;;;;8.43;2.55;;;1.80;99.90;;;;;;4949222;29;20027;-92
2021/01/24 08:12:59;;;;;;;4.68;2.17;;;1.80;99.90;;;;;;4964839;29;20320;-93
2021/01/24 08:15:47;;;;;;;7.10;2.50;;;1.90;99.90;;;;;;4932430;29;20038;-92
2021/01/24 08:18:16;;;;;;;6.78;2.17;;;1.80;99.90;;;;;;4964502;29;20408;-94
2021/01/24 08:20:42;;;;;;;9.15;2.38;;;1.80;99.90;;;;;;4964744;29;20090;-93
2021/01/24 08:23:08;;;;;;;10.27;2.75;;;1.80;99.90;;;;;;4964853;29;20024;-93
2021/01/24 08:25:38;;;;;;;5.28;1.40;;;1.80;99.90;;;;;;4948625;29;20040;-92
2021/01/24 08:28:04;;;;;;;6.40;1.83;;;1.80;99.90;;;;;;4964668;29;20047;-93
2021/01/24 08:30:37;;;;;;;5.22;1.73;;;1.70;99.90;;;;;;4948604;29;20036;-93
2021/01/24 08:33:04;;;;;;;10.48;3.03;;;1.60;99.90;;;;;;4980087;23;20059;-93
2021/01/24 08:35:32;;;;;;;11.45;2.70;;;1.70;99.90;;;;;;4966645;28;20041;-93
2021/01/24 08:38:01;;;;;;;;;;;1.60;99.90;;;;;;4952354;29;20031;-93
2021/01/24 08:40:37;;;;;;;6.15;2.33;;;1.60;99.90;;;;;;4949395;29;19918;-91
2021/01/24 08:43:09;;;;;;;12.98;5.13;;;1.60;99.90;;;;;;4932339;29;20039;-93
2021/01/24 08:45:42;;;;;;;10.18;4.78;;;1.60;99.90;;;;;;4944136;29;20019;-93
2021/01/24 08:48:15;;;;;;;13.10;5.18;;;1.60;99.90;;;;;;4965657;29;20175;-93
2021/01/24 08:50:44;;;;;;;13.80;4.95;;;1.50;99.90;;;;;;4951160;29;20154;-92
2021/01/24 08:53:10;;;;;;;14.68;5.50;;;1.50;99.90;;;;;;4980911;28;20043;-93
2021/01/24 08:55:53;;;;;;;11.35;5.00;;;1.50;99.90;;;;;;4965934;28;20107;-95
2021/01/24 08:58:24;;;;;;;14.48;5.22;;;1.50;99.90;;;;;;4951686;29;20031;-95
2021/01/24 09:01:10;;;;;;;14.50;4.80;;;1.60;99.90;;;;;;4950879;29;20027;-93
2021/01/24 09:03:41;;;;;;;10.15;4.53;;;1.70;99.90;;;;;;4983174;28;20035;-92
2021/01/24 09:06:14;;;;;;;8.30;3.25;;;1.70;99.90;;;;;;4951594;29;20480;-94
2021/01/24 09:08:53;;;;;;;8.15;3.55;;;1.60;99.90;;;;;;4967458;29;20058;-92
2021/01/24 09:11:20;;;;;;;7.32;3.42;;;1.70;99.90;;;;;;4951189;29;20126;-93
2021/01/24 09:13:47;;;;;;;10.60;4.15;;;1.80;99.90;;;;;;4967484;29;20031;-94
2021/01/24 09:16:13;;;;;;;10.23;3.72;;;1.80;99.90;;;;;;4951356;29;20042;-94
2021/01/24 09:18:39;;;;;;;7.50;2.40;;;1.80;99.90;;;;;;4951943;29;20476;-93
2021/01/24 09:21:06;;;;;;;6.40;2.95;;;1.80;99.90;;;;;;4951169;29;20036;-92
2021/01/24 09:23:35;;;;;;;6.57;2.30;;;1.80;99.90;;;;;;4967268;29;20031;-95
2021/01/24 09:26:01;;;;;;;5.50;2.45;;;1.80;99.90;;;;;;4951598;29;20034;-92
2021/01/24 09:28:30;;;;;;;5.72;2.10;;;1.80;99.90;;;;;;4951776;29;20035;-94
2021/01/24 09:31:07;;;;;;;6.25;1.83;;;1.90;99.90;;;;;;4950869;29;20059;-93
2021/01/24 09:33:40;;;;;;;7.82;2.08;;;1.90;99.90;;;;;;4982685;28;20051;-93
2021/01/24 09:36:10;;;;;;;5.25;2.22;;;1.80;99.90;;;;;;4982493;28;20039;-95
2021/01/24 09:50:58;;;;;;;3.72;1.58;;;2.10;99.90;;;;;;5055981;23;20051;-94
2021/01/24 09:54:20;;;;;;;;;;;;;;;;;;;;;
2021/01/24 09:57:39;;;;;;;;;;;;;;;;;;;;;
2021/01/24 10:00:28;;;;;;;3.13;0.85;;;2.30;99.90;;;;;;5006587;28;20054;-95
2021/01/24 10:02:54;;;;;;;3.05;0.73;;;2.30;99.90;;;;;;4989185;28;20049;-94
2021/01/24 10:05:35;;;;;;;2.63;0.70;;;2.40;99.90;;;;;;4995706;23;20054;-94
2021/01/24 10:08:20;;;;;;;3.10;0.80;;;2.60;99.90;;;;;;4992715;28;20106;-94
2021/01/24 10:11:04;;;;;;;3.15;0.68;;;2.50;99.90;;;;;;4989471;28;20031;-94
2021/01/24 10:13:32;;;;;;;5.03;0.90;;;2.60;99.90;;;;;;4988940;28;20044;-94
2021/01/24 10:15:58;;;;;;;2.60;0.90;;;2.60;99.90;;;;;;4989246;28;20057;-94
2021/01/24 10:25:59;;;;;;;3.05;0.60;;;3.00;99.90;;;;;;4992717;23;20110;-94
2021/01/24 10:28:25;;;;;;;2.90;0.52;;;3.10;99.90;;;;;;4968173;28;20063;-92
2021/01/24 10:30:54;;;;;;;4.33;0.63;;;3.10;99.90;;;;;;4968322;28;20038;-92
2021/01/24 10:33:21;;;;;;;6.88;0.88;;;3.10;99.90;;;;;;4980935;28;20039;-92
2021/01/24 10:35:48;;;;;;;4.32;0.68;;;3.20;99.90;;;;;;4952339;28;20094;-93
2021/01/24 10:38:18;;;;;;;2.33;0.60;;;3.20;99.90;;;;;;5017205;23;20055;-92
2021/01/24 10:40:44;;;;;;;2.13;0.55;;;3.30;99.90;;;;;;4982515;28;20035;-92
2021/01/24 10:43:16;;;;;;;2.60;0.68;;;3.30;99.90;;;;;;4976668;28;20107;-94
2021/01/24 10:45:42;;;;;;;3.08;0.60;;;3.40;99.90;;;;;;4984303;28;20030;-93
2021/01/24 10:48:16;;;;;;;3.13;0.65;;;3.40;99.90;;;;;;4971811;28;20475;-94
2021/01/24 10:50:51;;;;;;;2.20;0.73;;;3.50;99.90;;;;;;4984419;28;20054;-93
2021/01/24 10:53:22;;;;;;;3.33;0.63;;;3.50;99.90;;;;;;4984118;28;20037;-94
2021/01/24 10:56:02;;;;;;;2.95;0.80;;;3.60;99.90;;;;;;4985017;28;20027;-95
2021/01/24 10:58:38;;;;;;;3.00;0.65;;;3.80;99.90;;;;;;4982470;28;20039;-94
2021/01/24 11:01:10;;;;;;;3.90;0.70;;;3.80;99.90;;;;;;4987850;28;20030;-96
2021/01/24 11:03:46;;;;;;;4.93;0.70;;;3.50;99.90;;;;;;4987109;28;20050;-96
2021/01/24 11:06:35;;;;;;;4.45;0.60;;;3.60;99.90;;;;;;4987757;28;20038;-95
2021/01/24 11:09:01;;;;;;;2.13;0.68;;;3.90;99.90;;;;;;4982000;28;20075;-94
2021/01/24 11:11:27;;;;;;;4.85;0.70;;;4.00;99.90;;;;;;4987409;28;20031;-94
2021/01/24 11:13:52;;;;;;;1.67;0.55;;;3.70;99.90;;;;;;4987764;28;20058;-93
2021/01/24 11:16:26;;;;;;;1.83;0.50;;;3.50;99.90;;;;;;4987501;28;20050;-95
2021/01/24 11:19:01;;;;;;;2.83;0.52;;;3.60;99.90;;;;;;4987822;28;20039;-94
2021/01/24 11:21:27;;;;;;;4.57;0.47;;;4.00;99.90;;;;;;4987298;28;20030;-94
2021/01/24 11:23:53;;;;;;;2.33;1.00;;;4.20;99.90;;;;;;4987676;28;20467;-93
2021/01/24 11:26:22;;;;;;;5.43;0.60;;;4.50;99.90;;;;;;4987460;28;20045;-96
2021/01/24 11:28:47;;;;;;;4.47;0.57;;;4.60;99.90;;;;;;4985015;28;20042;-95
2021/01/24 11:31:13;;;;;;;2.50;0.50;;;4.50;99.90;;;;;;4987377;28;20143;-95
2021/01/24 11:33:50;;;;;;;1.45;0.40;;;4.40;99.90;;;;;;4985911;28;20043;-94
2021/01/24 11:36:19;;;;;;;2.20;0.40;;;4.40;99.90;;;;;;4987458;28;20089;-93
2021/01/24 11:38:53;;;;;;;3.38;0.43;;;4.20;99.90;;;;;;4987353;28;20058;-94
2021/01/24 11:44:53;;;;;;;2.40;0.40;;;4.00;99.90;;;;;;4988609;23;20062;-95
2021/01/24 11:47:32;;;;;;;2.42;0.40;;;3.80;99.90;;;;;;4953173;29;20071;-94
2021/01/24 11:50:05;;;;;;;3.85;0.70;;;3.90;99.90;;;;;;4968021;29;20098;-95
2021/01/24 11:52:42;;;;;;;3.85;0.50;;;4.20;99.90;;;;;;4965763;29;20031;-93
2021/01/24 11:57:58;;;;;;;3.83;1.33;;;4.90;99.90;;;;;;5010913;23;20177;-92
2021/01/24 12:00:33;;;;;;;4.18;0.40;;;5.10;99.90;;;;;;4976036;28;20521;-95
2021/01/24 12:03:09;;;;;;;3.67;0.45;;;5.10;99.90;;;;;;5005746;28;20054;-94
2021/01/24 12:05:38;;;;;;;1.90;0.43;;;5.00;99.90;;;;;;4990749;28;20037;-94
2021/01/24 12:08:20;;;;;;;2.15;0.50;;;5.20;99.90;;;;;;4990691;28;20034;-95
2021/01/24 12:11:05;;;;;;;2.60;0.60;;;5.00;99.90;;;;;;4990463;28;20036;-94
2021/01/24 12:13:39;;;;;;;3.75;0.50;;;5.00;99.90;;;;;;4990598;28;20041;-96
2021/01/24 12:16:10;;;;;;;2.08;0.30;;;5.00;99.90;;;;;;4990807;28;20038;-94
2021/01/24 12:18:45;;;;;;;2.95;0.32;;;4.80;99.90;;;;;;5071978;23;20073;-95
2021/01/24 12:21:47;;;;;;;1.77;0.35;;;4.80;99.90;;;;;;5001616;28;20081;-92
2021/01/24 12:24:13;;;;;;;3.72;0.50;;;5.00;99.90;;;;;;4969831;28;20053;-91
2021/01/24 12:26:39;;;;;;;2.95;0.40;;;4.90;99.90;;;;;;4987117;28;20047;-91
2021/01/24 12:29:05;;;;;;;3.58;0.30;;;4.80;99.90;;;;;;5003655;28;20129;-91
2021/01/24 12:31:31;;;;;;;5.25;0.40;;;5.00;99.90;;;;;;4987177;28;20027;-91
2021/01/24 12:34:24;;;;;;;2.38;0.70;;;4.90;99.90;;;;;;5003126;28;20031;-93
2021/01/24 12:37:08;;;;;;;1.10;0.32;;;4.80;99.90;;;;;;4986982;28;20050;-92
2021/01/24 12:39:33;;;;;;;2.17;0.40;;;4.60;99.90;;;;;;4986830;28;20059;-90
2021/01/24 12:41:59;;;;;;;2.83;0.50;;;4.70;99.90;;;;;;4986501;28;20073;-92
2021/01/24 12:44:30;;;;;;;4.22;0.50;;;4.90;99.90;;;;;;4986719;28;20038;-91
2021/01/24 12:47:31;;;;;;;;;;;;;;;;;;;;;
2021/01/24 12:50:00;;;;;;;1.67;0.47;;;5.10;99.90;;;;;;5002942;28;20039;-91
2021/01/24 12:52:26;;;;;;;2.70;0.60;;;5.10;99.90;;;;;;4985453;28;20042;-91
2021/01/24 12:54:58;;;;;;;2.60;0.50;;;4.80;99.90;;;;;;5005926;28;20093;-92
2021/01/24 12:57:26;;;;;;;3.53;0.73;;;4.70;99.90;;;;;;5006282;28;20038;-92
2021/01/24 12:59:51;;;;;;;1.98;0.60;;;4.60;99.90;;;;;;5006113;28;20041;-91
2021/01/24 13:05:28;;;;;;;5.28;0.70;;;4.80;99.90;;;;;;4999656;28;20058;-93
2021/01/24 13:08:04;;;;;;;5.97;0.70;;;5.10;99.90;;;;;;5005203;28;20031;-91
2021/01/24 13:10:31;;;;;;;7.90;1.25;;;5.20;99.90;;;;;;5006029;28;20046;-90
2021/01/24 13:12:57;;;;;;;4.38;1.08;;;5.10;99.90;;;;;;4998657;28;20081;-92
2021/01/24 13:15:23;;;;;;;7.95;0.80;;;5.10;99.90;;;;;;4978566;28;20456;-91
2021/01/24 13:17:48;;;;;;;4.80;0.70;;;5.20;99.90;;;;;;4983198;28;20098;-90
2021/01/24 13:20:14;;;;;;;4.15;0.80;;;5.20;99.90;;;;;;4982585;28;20058;-91
2021/01/24 13:22:41;;;;;;;5.22;0.60;;;5.00;99.90;;;;;;4982023;28;20039;-91
2021/01/24 13:25:17;;;;;;;4.85;1.35;;;5.00;99.90;;;;;;4966530;29;20073;-92
2021/01/24 13:27:46;;;;;;;7.63;0.95;;;5.20;99.90;;;;;;4982566;28;20109;-90
2021/01/24 13:30:12;;;;;;;7.88;1.52;;;5.10;99.90;;;;;;4982659;28;20058;-92
2021/01/24 13:32:38;;;;;;;5.68;1.08;;;5.10;99.90;;;;;;4982816;28;20031;-91
2021/01/24 13:35:04;;;;;;;6.20;1.20;;;5.10;99.90;;;;;;4982795;28;20090;-90
2021/01/24 13:37:29;;;;;;;6.03;1.40;;;4.90;99.90;;;;;;4982746;28;20053;-91
2021/01/24 13:39:55;;;;;;;4.47;1.48;;;4.80;99.90;;;;;;4982490;28;20058;-90
2021/01/24 13:42:21;;;;;;;4.72;1.52;;;4.80;99.90;;;;;;4982683;28;20484;-91
2021/01/24 13:44:47;;;;;;;4.93;1.58;;;4.70;99.90;;;;;;4982696;28;20039;-90
2021/01/24 13:47:12;;;;;;;5.05;1.15;;;4.70;99.90;;;;;;4982602;28;20047;-90